• Join FlightAware (Why Join?)
  • Login
  • US Flag 
12:52AM EDT


 

Airport Tracker/Info


-or-


 

Live Flight TrackerFlight Track Log ✈ ASQ5745 ✈ 17-Jul-2013 ✈ KIAD - KALB

Flight Track Log - Related Links

Times and Time Zones

All times are in EDT time to prevent confusion due to time zone crossing. See the ASQ5745 flight status page for this flight to view local times or setup timezone preferences in your user account.

Time Position Orientation Groundspeed Altitude Reporting Facility
EDT Latitude Longitude Course Direction KTS MPH feet Rate Location/Type
08:20AM 38.9833 -77.4500 North 183 211 2,000  Level Potomac TRACON
08:21AM 39.0500 -77.4500 360° North 257 296 4,000 2,640 Climbing Potomac TRACON
08:23AM 39.2945 -77.4500 North  Level FlightAware Approximate
08:23AM 39.1886 -77.4661 355° North 262 302 9,900  Level Washington Center
08:24AM 39.3848 -77.4500 North  Level FlightAware Approximate
08:24AM 39.2700 -77.4628 North 269 310 12,100  Level Washington Center
08:25AM 39.4751 -77.4500 North  Level FlightAware Approximate
08:25AM 39.3511 -77.4622 360° North 279 321 14,400  Level Washington Center
08:26AM 39.4344 -77.4592 North 285 328 16,100 1,380 Climbing Washington Center
08:27AM 39.5264 -77.4586 360° North 304 350 17,200 900 Climbing Washington Center
08:28AM 39.6594 -77.4536 North 354 407 18,300 720 Climbing New York Center
08:29AM 39.7531 -77.4544 360° North 364 419 19,000 660 Climbing New York Center
08:30AM 39.8575 -77.4536 360° North 369 425 19,700 780 Climbing New York Center
08:31AM 39.9681 -77.4506 North 380 437 20,600 720 Climbing New York Center
08:32AM 40.0808 -77.4506 360° North 390 449 21,200 720 Climbing New York Center
08:33AM 40.2039 -77.4461 North 395 455 22,100 720 Climbing New York Center
08:34AM 40.3000 -77.4064 17° North 405 466 22,700 420 Climbing New York Center
08:35AM 40.4017 -77.3397 27° Northeast 399 459 23,000 360 Climbing New York Center
08:36AM 40.5142 -77.2658 27° Northeast 399 459 23,500 480 Climbing New York Center
08:37AM 40.6203 -77.1939 27° Northeast 406 467 24,000 480 Climbing New York Center
08:38AM 40.7242 -77.1242 27° Northeast 417 480 24,500 480 Climbing New York Center
08:39AM 40.8300 -77.0544 26° Northeast 417 480 25,000 480 Climbing New York Center
08:40AM 40.9431 -77.0069 18° North 417 480 25,500 480 Climbing New York Center
08:41AM 41.0536 -76.9622 17° North 417 480 26,000 480 Climbing New York Center
08:42AM 41.1597 -76.8864 28° Northeast 417 480 26,500 480 Climbing New York Center
08:43AM 41.2639 -76.8075 30° Northeast 423 487 27,000 240 Climbing New York Center
08:44AM 41.3697 -76.7314 28° Northeast 428 493 27,000  Level New York Center
08:45AM 41.4822 -76.6497 29° Northeast 438 504 27,000  Level New York Center
08:46AM 41.5922 -76.5681 29° Northeast 443 510 27,000  Level New York Center
08:47AM 41.7006 -76.4856 30° Northeast 443 510 27,000  Level New York Center
08:48AM 41.7978 -76.4106 30° Northeast 443 510 27,000  Level New York Center
08:49AM 41.9228 -76.3181 29° Northeast 448 516 27,000 -180 Level New York Center
08:50AM 42.0222 -76.2425 29° Northeast 453 521 26,700 -360 Descending New York Center
08:51AM 42.1450 -76.1492 29° Northeast 458 527 26,300 -540 Descending New York Center
08:52AM 42.2158 -75.9839 60° Northeast 463 533 25,600 -840 Descending Boston Center
08:53AM 42.2667 -75.8239 67° East 457 526 24,500 -840 Descending Boston Center
08:54AM 42.3233 -75.6611 65° Northeast 443 510 24,000 -300 Descending Boston Center
08:55AM 42.3550 -75.5028 75° East 436 502 24,000 -300 Level Boston Center
08:56AM 42.3736 -75.3489 81° East 423 487 23,400 -1,680 Descending Boston Center
08:57AM 42.3961 -75.2011 78° East 417 480 20,700 -2,700 Descending Boston Center
08:58AM 42.4142 -75.0556 80° East 406 467 18,000 -2,880 Descending Boston Center
08:59AM 42.4339 -74.9156 79° East 393 452 15,000 -3,060 Descending Boston Center
09:00AM 42.4514 -74.7783 80° East 376 433 11,900 -2,040 Descending Boston Center
09:01AM 42.4706 -74.6525 78° East 335 386 11,000 -480 Descending Boston Center
09:02AM 42.4897 -74.5264 78° East 346 398 11,000 -120 Level Boston Center
09:03AM 42.5042 -74.4058 81° East 336 387 10,800 -900 Descending Boston Center
09:04AM 42.5186 -74.2992 80° East 306 352 9,300 -1,500 Descending Boston Center
09:05AM 42.5303 -74.2208 79° East 294 338 7,800 -1,860 Descending Boston Center
09:06AM 42.5633 -74.1089 68° East 294 338 5,600 -2,100 Descending Boston Center
09:07AM 42.6022 -74.0000 64° Northeast 277 319 3,600 -1,020 Descending Boston Center
09:08AM 42.6472 -73.9136 55° Northeast 255 293 3,500 -480 Descending Boston Center
09:09AM 42.6753 -73.8436 61° Northeast 189 217 2,700 -1,140 Descending Boston Center
09:10AM 42.7006 -73.8075 46° Northeast 129 148 1,200 -1,500 Descending Boston Center